createdAt,value
2023-06-28T00:00:06.016Z,101059.28
2023-06-28T00:01:18.861Z,101069.75
2023-06-28T00:02:22.045Z,101062.63
2023-06-28T00:03:24.142Z,101064.69
2023-06-28T00:04:26.038Z,101056.31
2023-06-28T00:05:27.877Z,101069.28
2023-06-28T00:06:32.509Z,101067.59
2023-06-28T00:07:34.714Z,101058.63
2023-06-28T00:08:36.632Z,101061.34
2023-06-28T00:09:38.522Z,101065.91
2023-06-28T00:10:40.485Z,101062.38
2023-06-28T00:11:42.745Z,101058.00
2023-06-28T00:12:44.639Z,101065.25
2023-06-28T00:13:46.565Z,101067.16
2023-06-28T00:14:48.820Z,101067.16
2023-06-28T00:15:50.903Z,101063.81
2023-06-28T00:16:52.850Z,101065.47
2023-06-28T00:17:54.908Z,101063.16
2023-06-28T00:19:01.565Z,101064.63
2023-06-28T00:20:09.346Z,101053.34
2023-06-28T00:21:14.597Z,101059.41
2023-06-28T00:22:16.607Z,101058.38
2023-06-28T00:23:18.413Z,101063.81
2023-06-28T00:24:20.286Z,101063.97
2023-06-28T00:25:22.294Z,101062.13
2023-06-28T00:26:24.370Z,101063.34
2023-06-28T00:27:26.664Z,101061.47
2023-06-28T00:28:28.652Z,101068.75
2023-06-28T00:29:31.125Z,101065.22
2023-06-28T00:30:34.316Z,101063.53
2023-06-28T00:31:36.289Z,101072.50
2023-06-28T00:32:38.554Z,101071.66
2023-06-28T00:33:41.874Z,101070.00
2023-06-28T00:34:43.789Z,101065.78
2023-06-28T00:35:45.620Z,101077.09
2023-06-28T00:36:47.452Z,101072.06
2023-06-28T00:37:49.244Z,101068.31
2023-06-28T00:38:51.095Z,101067.47
2023-06-28T00:39:52.927Z,101072.88
2023-06-28T00:40:55.201Z,101068.50
2023-06-28T00:41:57.059Z,101074.13
2023-06-28T00:42:58.976Z,101072.22
2023-06-28T00:44:01.010Z,101068.69
2023-06-28T00:45:02.975Z,101077.88
2023-06-28T00:46:04.831Z,101074.94
2023-06-28T00:47:07.899Z,101067.03
2023-06-28T00:48:11.843Z,101062.44
2023-06-28T00:49:13.692Z,101069.06
2023-06-28T00:50:16.357Z,101071.59
2023-06-28T00:51:18.557Z,101067.03
2023-06-28T00:52:20.616Z,101064.31
2023-06-28T00:53:22.756Z,101071.59
2023-06-28T00:54:24.840Z,101069.91
2023-06-28T00:55:27.777Z,101062.34
2023-06-28T00:56:30.560Z,101055.25
2023-06-28T00:57:32.707Z,101063.63
2023-06-28T00:58:34.605Z,101065.69
2023-06-28T00:59:36.823Z,101058.41
2023-06-28T01:00:38.762Z,101047.09
2023-06-28T01:01:40.807Z,101060.28
2023-06-28T01:02:46.027Z,101062.97
2023-06-28T01:03:51.829Z,101060.28
2023-06-28T01:04:59.182Z,101061.13
2023-06-28T01:06:01.035Z,101044.03
2023-06-28T01:07:04.469Z,101053.81
2023-06-28T01:08:08.177Z,101054.84
2023-06-28T01:09:12.764Z,101058.59
2023-06-28T01:10:18.376Z,101054.84
2023-06-28T01:11:20.707Z,101056.53
2023-06-28T01:12:22.773Z,101058.59
2023-06-28T01:13:25.102Z,101051.50
2023-06-28T01:14:27.054Z,101044.78
2023-06-28T01:15:29.272Z,101052.53
2023-06-28T01:16:31.482Z,101049.19
2023-06-28T01:17:33.430Z,101045.44
2023-06-28T01:18:36.435Z,101049.00
2023-06-28T01:19:38.381Z,101048.13
2023-06-28T01:20:40.537Z,101047.31
2023-06-28T01:21:46.682Z,101043.09
2023-06-28T01:22:55.328Z,101050.03
2023-06-28T01:23:57.201Z,101049.81
2023-06-28T01:24:59.354Z,101042.47
2023-06-28T01:26:03.725Z,101048.34
2023-06-28T01:27:09.697Z,101041.44
2023-06-28T01:28:12.909Z,101047.50
2023-06-28T01:29:14.965Z,101048.34
2023-06-28T01:30:17.268Z,101052.09
2023-06-28T01:31:19.689Z,101053.94
2023-06-28T01:32:21.562Z,101047.59
2023-06-28T01:33:23.497Z,101051.59
2023-06-28T01:34:29.380Z,101057.00
2023-06-28T01:35:32.987Z,101052.25
2023-06-28T01:36:35.343Z,101059.72
2023-06-28T01:37:38.986Z,101056.00
2023-06-28T01:38:42.204Z,101052.44
2023-06-28T01:39:44.197Z,101056.88
2023-06-28T01:40:50.018Z,101048.22
2023-06-28T01:41:53.804Z,101054.28
2023-06-28T01:42:56.206Z,101053.28
2023-06-28T01:43:58.033Z,101054.28
2023-06-28T01:44:59.955Z,101047.19
2023-06-28T01:46:02.612Z,101043.84
2023-06-28T01:47:04.635Z,101046.94
2023-06-28T01:48:06.998Z,101050.94
2023-06-28T01:49:09.134Z,101040.31
2023-06-28T01:50:12.320Z,101039.47
2023-06-28T01:51:14.309Z,101043.03
2023-06-28T01:52:17.355Z,101040.69
2023-06-28T01:53:19.812Z,101030.41
2023-06-28T01:54:22.728Z,101033.78
2023-06-28T01:55:24.662Z,101042.16
2023-06-28T01:56:26.562Z,101035.94
2023-06-28T01:57:28.534Z,101036.47
2023-06-28T01:58:30.395Z,101043.19
2023-06-28T01:59:32.334Z,101043.19
2023-06-28T02:00:34.284Z,101050.50
2023-06-28T02:01:36.830Z,101045.09
2023-06-28T02:02:40.732Z,101038.34
2023-06-28T02:03:42.637Z,101045.09
2023-06-28T02:04:44.608Z,101049.66
2023-06-28T02:05:46.642Z,101044.22
2023-06-28T02:06:48.687Z,101041.91
2023-06-28T02:07:50.568Z,101048.19
2023-06-28T02:08:52.424Z,101045.25
2023-06-28T02:09:54.391Z,101038.53
2023-06-28T02:10:56.322Z,101040.88
2023-06-28T02:11:58.212Z,101048.19
2023-06-28T02:13:00.085Z,101046.66
2023-06-28T02:14:04.698Z,101056.09
2023-06-28T02:15:07.383Z,101049.84
2023-06-28T02:16:09.422Z,101046.28
2023-06-28T02:17:15.360Z,101049.84
2023-06-28T02:18:18.717Z,101054.25
2023-06-28T02:19:20.638Z,101053.38
2023-06-28T02:20:22.735Z,101043.56
2023-06-28T02:21:24.648Z,101050.03
2023-06-28T02:22:29.294Z,101048.34
2023-06-28T02:23:31.238Z,101045.81
2023-06-28T02:24:33.143Z,101050.03
2023-06-28T02:25:34.957Z,101055.44
2023-06-28T02:26:36.967Z,101056.31
2023-06-28T02:27:38.942Z,101046.03
2023-06-28T02:28:40.894Z,101047.06
2023-06-28T02:29:43.005Z,101057.31
2023-06-28T02:30:45.087Z,101057.50
2023-06-28T02:31:47.189Z,101061.25
2023-06-28T02:32:51.856Z,101056.59
2023-06-28T02:33:54.089Z,101064.59
2023-06-28T02:34:56.004Z,101066.66
2023-06-28T02:35:57.998Z,101073.75
2023-06-28T02:36:59.862Z,101073.75
2023-06-28T02:38:01.698Z,101073.75
2023-06-28T02:39:03.966Z,101067.50
2023-06-28T02:40:06.818Z,101077.50
2023-06-28T02:41:08.729Z,101077.50
2023-06-28T02:42:12.960Z,101080.84
2023-06-28T02:43:16.883Z,101072.09
2023-06-28T02:44:18.937Z,101073.75
2023-06-28T02:45:21.785Z,101075.63
2023-06-28T02:46:24.560Z,101066.66
2023-06-28T02:47:26.462Z,101073.75
2023-06-28T02:48:28.406Z,101072.09
2023-06-28T02:49:30.266Z,101071.22
2023-06-28T02:50:32.210Z,101074.78
2023-06-28T02:51:39.835Z,101072.91
2023-06-28T02:52:43.776Z,101077.50
2023-06-28T02:53:47.039Z,101070.41
2023-06-28T02:54:48.973Z,101072.91
2023-06-28T02:55:50.824Z,101071.22
2023-06-28T02:56:58.312Z,101080.84
2023-06-28T02:58:24.742Z,101068.81
2023-06-28T02:59:26.737Z,101072.34
2023-06-28T03:00:31.060Z,101073.38
2023-06-28T03:01:33.127Z,101069.16
2023-06-28T03:02:35.251Z,101074.59
2023-06-28T03:03:38.039Z,101062.66
2023-06-28T03:04:41.035Z,101074.78
2023-06-28T03:05:44.589Z,101073.75
2023-06-28T03:06:50.535Z,101044.91
2023-06-28T03:07:52.671Z,101079.19
2023-06-28T03:08:54.757Z,101073.75
2023-06-28T03:09:56.640Z,101072.09
2023-06-28T03:10:58.659Z,101071.22
2023-06-28T03:12:00.523Z,101060.78
2023-06-28T03:13:02.377Z,101078.53
2023-06-28T03:14:04.288Z,101076.66
2023-06-28T03:15:08.739Z,101047.28
2023-06-28T03:16:10.664Z,101082.91
2023-06-28T03:17:12.562Z,101069.09
2023-06-28T03:18:15.713Z,101073.75
2023-06-28T03:19:17.605Z,101073.50
2023-06-28T03:20:21.620Z,101079.34
2023-06-28T03:21:23.790Z,101071.88
2023-06-28T03:22:25.591Z,101063.47
2023-06-28T03:23:27.461Z,101072.09
2023-06-28T03:24:29.654Z,101064.34
2023-06-28T03:25:32.052Z,101074.78
2023-06-28T03:26:35.684Z,101076.47
2023-06-28T03:27:37.585Z,101079.19
2023-06-28T03:28:41.066Z,101076.47
2023-06-28T03:29:43.461Z,101068.34
2023-06-28T03:30:45.493Z,101076.47
2023-06-28T03:31:48.098Z,101073.75
2023-06-28T03:32:50.220Z,101073.75
2023-06-28T03:33:52.272Z,101074.78
2023-06-28T03:34:54.280Z,101068.34
2023-06-28T03:35:56.244Z,101072.91
2023-06-28T03:37:04.482Z,101068.34
2023-06-28T03:38:07.936Z,101072.09
2023-06-28T03:39:09.817Z,101071.69
2023-06-28T03:40:12.041Z,101081.69
2023-06-28T03:41:14.356Z,101075.44
2023-06-28T03:42:16.617Z,101075.44
2023-06-28T03:43:18.664Z,101072.09
2023-06-28T03:44:20.909Z,101080.69
2023-06-28T03:45:22.794Z,101077.13
2023-06-28T03:46:24.936Z,101079.81
2023-06-28T03:47:26.887Z,101080.84
2023-06-28T03:48:29.107Z,101085.25
2023-06-28T03:49:31.006Z,101076.84
2023-06-28T03:50:32.898Z,101083.41
2023-06-28T03:51:34.863Z,101087.94
2023-06-28T03:52:37.467Z,101076.66
2023-06-28T03:53:40.630Z,101079.56
2023-06-28T03:54:42.581Z,101080.69
2023-06-28T03:55:45.868Z,101079.66
2023-06-28T03:56:47.698Z,101083.19
2023-06-28T03:57:51.275Z,101089.63
2023-06-28T03:58:53.330Z,101077.97
2023-06-28T03:59:55.233Z,101082.34
2023-06-28T04:00:57.243Z,101090.50
2023-06-28T04:01:59.358Z,101082.34
2023-06-28T04:03:02.470Z,101091.31
2023-06-28T04:04:04.480Z,101077.50
2023-06-28T04:05:06.795Z,101086.94
2023-06-28T04:06:08.624Z,101093.00
2023-06-28T04:07:10.598Z,101091.31
2023-06-28T04:08:12.531Z,101094.88
2023-06-28T04:09:14.665Z,101092.16
2023-06-28T04:10:16.536Z,101095.69
2023-06-28T04:11:18.366Z,101094.03
2023-06-28T04:12:20.259Z,101088.59
2023-06-28T04:13:22.101Z,101093.00
2023-06-28T04:14:27.643Z,101093.19
2023-06-28T04:15:29.491Z,101097.38
2023-06-28T04:16:31.401Z,101092.16
2023-06-28T04:17:33.292Z,101098.41
2023-06-28T04:18:35.635Z,101097.38
2023-06-28T04:19:37.594Z,101097.59
2023-06-28T04:20:39.973Z,101097.59
2023-06-28T04:21:41.958Z,101091.53
2023-06-28T04:22:43.907Z,101096.72
2023-06-28T04:23:46.110Z,101100.47
2023-06-28T04:24:47.974Z,101088.34
2023-06-28T04:25:49.787Z,101095.44
2023-06-28T04:26:51.705Z,101099.66
2023-06-28T04:27:53.563Z,101101.97
2023-06-28T04:28:55.427Z,101098.41
2023-06-28T04:29:57.329Z,101088.97
2023-06-28T04:30:59.223Z,101099.25
2023-06-28T04:32:04.751Z,101088.34
2023-06-28T04:33:06.728Z,101091.97
2023-06-28T04:34:08.751Z,101103.81
2023-06-28T04:35:11.227Z,101086.75
2023-06-28T04:36:13.337Z,101096.72
2023-06-28T04:37:16.164Z,101088.59
2023-06-28T04:38:20.413Z,101089.47
2023-06-28T04:39:22.332Z,101086.75
2023-06-28T04:40:24.249Z,101094.88
2023-06-28T04:41:26.939Z,101077.66
2023-06-28T04:42:28.813Z,101093.00
2023-06-28T04:43:30.638Z,101084.22
2023-06-28T04:44:35.371Z,101090.50
2023-06-28T04:45:38.877Z,101085.06
2023-06-28T04:46:45.499Z,101085.88
2023-06-28T04:47:47.401Z,101094.66
2023-06-28T04:48:50.007Z,101095.91
2023-06-28T04:49:51.884Z,101087.56
2023-06-28T04:50:53.879Z,101073.28
2023-06-28T04:51:55.826Z,101085.06
2023-06-28T04:52:57.629Z,101076.47
2023-06-28T04:54:00.308Z,101079.66
2023-06-28T04:55:02.225Z,101082.34
2023-06-28T04:56:05.382Z,101077.13
2023-06-28T04:57:07.476Z,101069.53
2023-06-28T04:58:09.285Z,101084.22
2023-06-28T04:59:11.403Z,101077.97
2023-06-28T05:00:14.022Z,101078.31
2023-06-28T05:01:15.894Z,101074.78
2023-06-28T05:02:17.864Z,101078.97
2023-06-28T05:03:19.805Z,101075.44
2023-06-28T05:04:21.715Z,101076.25
2023-06-28T05:05:25.615Z,101055.69
2023-06-28T05:06:30.008Z,101081.69
2023-06-28T05:07:31.944Z,101071.06
2023-06-28T05:08:33.970Z,101079.66
2023-06-28T05:09:36.931Z,101072.56
2023-06-28T05:10:38.729Z,101080.69
2023-06-28T05:11:40.897Z,101083.84
2023-06-28T05:12:42.717Z,101078.41
2023-06-28T05:13:44.609Z,101084.47
2023-06-28T05:14:46.521Z,101084.31
2023-06-28T05:15:48.544Z,101079.34
2023-06-28T05:16:50.385Z,101082.72
2023-06-28T05:17:52.274Z,101079.84
2023-06-28T05:18:54.168Z,101077.56
2023-06-28T05:19:55.984Z,101082.81
2023-06-28T05:20:57.980Z,101076.19
2023-06-28T05:21:59.896Z,101079.53
2023-06-28T05:23:13.101Z,101081.47
2023-06-28T05:24:17.420Z,101081.09
2023-06-28T05:25:19.296Z,101084.25
2023-06-28T05:26:21.221Z,101081.34
2023-06-28T05:27:23.114Z,101081.78
2023-06-28T05:28:27.184Z,101080.59
2023-06-28T05:29:31.966Z,101087.28
2023-06-28T05:30:34.474Z,101076.06
2023-06-28T05:31:38.124Z,101070.00
2023-06-28T05:32:40.327Z,101083.63
2023-06-28T05:33:42.243Z,101075.28
2023-06-28T05:34:44.175Z,101081.19
2023-06-28T05:35:46.089Z,101086.22
2023-06-28T05:36:47.925Z,101085.00
2023-06-28T05:37:49.782Z,101083.75
2023-06-28T05:38:53.747Z,101075.81
2023-06-28T05:39:55.694Z,101083.84
2023-06-28T05:41:12.685Z,101086.59
2023-06-28T05:42:14.565Z,101060.19
2023-06-28T05:43:16.383Z,101086.03
2023-06-28T05:44:22.153Z,101085.00
2023-06-28T05:45:24.928Z,101084.59
2023-06-28T05:46:26.729Z,101084.44
2023-06-28T05:47:28.621Z,101086.94
2023-06-28T05:48:33.753Z,101084.22
2023-06-28T05:49:39.046Z,101089.06
2023-06-28T05:50:45.895Z,101087.81
2023-06-28T05:51:48.058Z,101089.31
2023-06-28T05:52:50.926Z,101089.09
2023-06-28T05:53:53.013Z,101087.03
2023-06-28T05:54:54.857Z,101093.31
2023-06-28T05:55:57.279Z,101087.88
2023-06-28T05:56:59.126Z,101089.56
2023-06-28T05:58:01.136Z,101082.91
2023-06-28T05:59:02.985Z,101088.34
2023-06-28T06:00:05.982Z,101091.88
2023-06-28T06:01:08.029Z,101093.38
2023-06-28T06:02:09.920Z,101090.44
2023-06-28T06:03:12.079Z,101090.44
2023-06-28T06:04:14.173Z,101091.09
2023-06-28T06:05:16.289Z,101088.38
2023-06-28T06:06:19.032Z,101094.66
2023-06-28T06:07:20.954Z,101092.59
2023-06-28T06:08:22.851Z,101075.41
2023-06-28T06:09:24.693Z,101096.13
2023-06-28T06:10:26.671Z,101091.56
2023-06-28T06:11:28.549Z,101094.06
2023-06-28T06:12:30.356Z,101089.47
2023-06-28T06:13:32.534Z,101092.19
2023-06-28T06:14:34.520Z,101083.84
2023-06-28T06:15:36.512Z,101093.88
2023-06-28T06:16:38.364Z,101095.53
2023-06-28T06:17:40.353Z,101090.13
2023-06-28T06:18:42.422Z,101092.63
2023-06-28T06:19:44.302Z,101090.94
2023-06-28T06:20:46.126Z,101098.03
2023-06-28T06:21:48.018Z,101099.72
2023-06-28T06:22:50.953Z,101100.56
2023-06-28T06:23:52.954Z,101095.53
2023-06-28T06:24:54.912Z,101097.69
2023-06-28T06:25:56.834Z,101096.81
2023-06-28T06:26:59.716Z,101095.97
2023-06-28T06:28:01.659Z,101097.69
2023-06-28T06:29:04.164Z,101098.50
2023-06-28T06:30:06.735Z,101103.94
2023-06-28T06:31:14.450Z,101103.09
2023-06-28T06:32:16.782Z,101098.97
2023-06-28T06:33:18.724Z,101101.84
2023-06-28T06:34:20.628Z,101099.72
2023-06-28T06:35:22.435Z,101101.03
2023-06-28T06:36:24.244Z,101104.56
2023-06-28T06:37:26.241Z,101101.84
2023-06-28T06:38:28.043Z,101108.13
2023-06-28T06:39:29.931Z,101104.56
2023-06-28T06:40:32.080Z,101101.41
2023-06-28T06:41:33.976Z,101077.34
2023-06-28T06:42:36.523Z,101100.81
2023-06-28T06:43:38.366Z,101099.78
2023-06-28T06:44:40.173Z,101105.44
2023-06-28T06:45:41.990Z,101102.50
2023-06-28T06:46:43.789Z,101102.25
2023-06-28T06:47:46.245Z,101104.38
2023-06-28T06:48:48.854Z,101108.97
2023-06-28T06:49:50.762Z,101100.63
2023-06-28T06:50:52.560Z,101108.56
2023-06-28T06:51:55.162Z,101106.06
2023-06-28T06:52:56.995Z,101111.50
2023-06-28T06:53:58.862Z,101102.31
2023-06-28T06:55:00.887Z,101109.41
2023-06-28T06:56:02.805Z,101103.34
2023-06-28T06:57:05.094Z,101096.44
2023-06-28T06:58:07.011Z,101104.00
2023-06-28T06:59:08.981Z,101104.84
2023-06-28T07:00:11.454Z,101104.84
2023-06-28T07:01:13.311Z,101100.28
2023-06-28T07:02:15.214Z,101103.00
2023-06-28T07:03:17.070Z,101113.84
2023-06-28T07:04:20.324Z,101103.81
2023-06-28T07:05:22.179Z,101101.09
2023-06-28T07:06:24.156Z,101114.66
2023-06-28T07:07:26.122Z,101107.38
2023-06-28T07:08:28.400Z,101110.91
2023-06-28T07:09:30.243Z,101109.25
2023-06-28T07:10:32.055Z,101108.19
2023-06-28T07:11:33.872Z,101105.50
2023-06-28T07:12:35.728Z,101112.59
2023-06-28T07:13:38.197Z,101099.78
2023-06-28T07:14:40.041Z,101109.88
2023-06-28T07:15:42.101Z,101103.63
2023-06-28T07:16:46.395Z,101109.25
2023-06-28T07:17:48.917Z,101091.84
2023-06-28T07:18:55.110Z,101106.97
2023-06-28T07:19:57.387Z,101109.47
2023-06-28T07:20:59.330Z,101101.09
2023-06-28T07:22:01.356Z,101097.72
2023-06-28T07:23:03.218Z,101097.56
2023-06-28T07:24:05.558Z,101108.66
2023-06-28T07:25:07.786Z,101101.56
2023-06-28T07:26:09.686Z,101105.94
2023-06-28T07:27:11.529Z,101104.06
2023-06-28T07:28:13.451Z,101109.47
2023-06-28T07:29:15.362Z,101106.75
2023-06-28T07:30:17.629Z,101098.63
2023-06-28T07:31:19.565Z,101105.72
2023-06-28T07:32:21.949Z,101105.72
2023-06-28T07:33:24.461Z,101100.28
2023-06-28T07:34:26.483Z,101096.53
2023-06-28T07:35:28.349Z,101095.72
2023-06-28T07:36:30.227Z,101102.38
2023-06-28T07:37:32.109Z,101101.97
2023-06-28T07:38:34.380Z,101094.88
2023-06-28T07:39:36.241Z,101101.97
2023-06-28T07:40:38.229Z,101094.22
2023-06-28T07:41:40.038Z,101101.97
2023-06-28T07:42:43.875Z,101101.97
2023-06-28T07:43:45.688Z,101089.00
2023-06-28T07:44:47.573Z,101107.41
2023-06-28T07:45:49.942Z,101100.13
2023-06-28T07:46:51.833Z,101105.53
2023-06-28T07:47:53.710Z,101107.41
2023-06-28T07:48:57.432Z,101095.50
2023-06-28T07:49:59.235Z,101094.22
2023-06-28T07:51:01.120Z,101100.94
2023-06-28T07:52:03.058Z,101094.88
2023-06-28T07:53:05.819Z,101096.53
2023-06-28T07:54:11.530Z,101094.69
2023-06-28T07:55:18.693Z,101097.00
2023-06-28T07:56:20.773Z,101098.84
2023-06-28T07:57:22.702Z,101103.47
2023-06-28T07:58:24.674Z,101093.66
2023-06-28T07:59:26.555Z,101098.22
2023-06-28T08:00:29.869Z,101095.50
2023-06-28T08:01:33.737Z,101097.19
2023-06-28T08:02:35.735Z,101094.88
2023-06-28T08:03:37.728Z,101094.47
2023-06-28T08:04:40.868Z,101093.81
2023-06-28T08:05:44.198Z,101091.97
2023-06-28T08:06:46.219Z,101090.94
2023-06-28T08:07:49.178Z,101091.13
2023-06-28T08:08:52.041Z,101098.22
2023-06-28T08:09:53.878Z,101091.75
2023-06-28T08:10:55.913Z,101088.22
2023-06-28T08:11:57.758Z,101098.22
2023-06-28T08:12:59.741Z,101087.34
2023-06-28T08:14:01.655Z,101094.47
2023-06-28T08:15:03.703Z,101099.06
2023-06-28T08:16:05.753Z,101089.25
2023-06-28T08:17:07.574Z,101089.00
2023-06-28T08:18:11.143Z,101091.97
2023-06-28T08:19:14.473Z,101097.19
2023-06-28T08:20:16.396Z,101082.47
2023-06-28T08:21:18.391Z,101100.94
2023-06-28T08:22:22.270Z,101099.91
2023-06-28T08:23:24.227Z,101102.63
2023-06-28T08:24:26.093Z,101101.78
2023-06-28T08:25:27.926Z,101092.78
2023-06-28T08:26:29.752Z,101096.38
2023-06-28T08:27:31.592Z,101098.22
2023-06-28T08:28:36.841Z,101094.69
2023-06-28T08:29:45.529Z,101098.69
2023-06-28T08:30:47.483Z,101101.56
2023-06-28T08:31:50.249Z,101098.22
2023-06-28T08:32:52.131Z,101096.16
2023-06-28T08:33:54.062Z,101103.47
2023-06-28T08:34:56.013Z,101098.22
2023-06-28T08:35:57.824Z,101096.38
2023-06-28T08:36:59.716Z,101084.41
2023-06-28T08:38:01.592Z,101095.50
2023-06-28T08:39:03.707Z,101088.16
2023-06-28T08:40:06.475Z,101095.50
2023-06-28T08:41:09.898Z,101090.69
2023-06-28T08:42:12.747Z,101089.88
2023-06-28T08:43:17.208Z,101087.34
2023-06-28T08:44:21.561Z,101087.75
2023-06-28T08:45:24.664Z,101083.59
2023-06-28T08:46:29.278Z,101092.38
2023-06-28T08:47:34.129Z,101094.06
2023-06-28T08:48:36.809Z,101098.03
2023-06-28T08:49:39.073Z,101091.34
2023-06-28T08:50:44.913Z,101101.41
2023-06-28T08:51:47.624Z,101100.34
2023-06-28T08:52:51.439Z,101092.38
2023-06-28T08:53:55.591Z,101099.50
2023-06-28T08:54:59.039Z,101099.50
2023-06-28T08:56:02.925Z,101092.38
2023-06-28T08:57:12.398Z,101097.63
2023-06-28T08:58:15.387Z,101094.06
2023-06-28T08:59:17.358Z,101094.75
2023-06-28T09:00:19.523Z,101095.78
2023-06-28T09:01:25.662Z,101088.22
2023-06-28T09:02:31.598Z,101090.34
2023-06-28T09:03:34.505Z,101082.97
2023-06-28T09:04:37.070Z,101092.22
2023-06-28T09:05:39.260Z,101097.44
2023-06-28T09:06:41.531Z,101070.56
2023-06-28T09:07:44.152Z,101080.25
2023-06-28T09:08:46.398Z,101087.63
2023-06-28T09:09:51.973Z,101085.28
2023-06-28T09:10:54.174Z,101070.66
2023-06-28T09:11:56.470Z,101079.44
2023-06-28T09:12:58.558Z,101088.00
2023-06-28T09:14:00.575Z,101092.03
2023-06-28T09:15:04.271Z,101090.34
2023-06-28T09:16:10.764Z,101085.91
2023-06-28T09:17:12.715Z,101086.59
2023-06-28T09:18:16.541Z,101085.56
2023-06-28T09:19:18.445Z,101088.28
2023-06-28T09:20:21.972Z,101082.19
2023-06-28T09:21:28.278Z,101079.47
2023-06-28T09:22:30.509Z,101077.41
2023-06-28T09:23:34.717Z,101074.88
2023-06-28T09:24:37.459Z,101068.22
2023-06-28T09:25:43.142Z,101067.75
2023-06-28T09:26:45.436Z,101074.06
2023-06-28T09:27:47.377Z,101078.22
2023-06-28T09:29:12.359Z,101081.19
2023-06-28T09:30:20.336Z,101070.53
2023-06-28T09:31:22.257Z,101079.50
2023-06-28T09:32:24.212Z,101075.31
2023-06-28T09:33:26.791Z,101065.25
2023-06-28T09:34:28.831Z,101068.22
2023-06-28T09:35:30.770Z,101066.53
2023-06-28T09:36:34.128Z,101071.97
2023-06-28T09:37:35.978Z,101073.66
2023-06-28T09:38:45.211Z,101068.22
2023-06-28T09:39:47.894Z,101074.28
2023-06-28T09:41:01.050Z,101065.09
2023-06-28T09:42:04.393Z,101065.09
2023-06-28T09:43:06.299Z,101065.09
2023-06-28T09:44:10.301Z,101067.19
2023-06-28T09:45:30.368Z,101059.84
2023-06-28T09:46:33.912Z,101064.06
2023-06-28T09:47:35.788Z,101065.28
2023-06-28T09:48:38.354Z,101058.19
2023-06-28T09:49:40.732Z,101065.09
2023-06-28T09:50:46.492Z,101065.50
2023-06-28T09:52:04.065Z,101067.81
2023-06-28T09:53:20.637Z,101061.97
2023-06-28T09:54:22.421Z,101067.19
2023-06-28T09:55:26.529Z,101057.34
2023-06-28T09:56:41.801Z,101060.72
2023-06-28T09:57:44.253Z,101058.63
2023-06-28T09:58:49.664Z,101058.19
2023-06-28T09:59:54.575Z,101055.47
2023-06-28T10:00:57.176Z,101061.75
2023-06-28T10:02:02.444Z,101047.91
2023-06-28T10:03:07.542Z,101052.69
2023-06-28T10:04:13.505Z,101050.25
2023-06-28T10:05:16.083Z,101062.78
2023-06-28T10:06:18.676Z,101052.97
2023-06-28T10:07:21.572Z,101050.25
2023-06-28T10:08:24.000Z,101050.25
2023-06-28T10:09:29.914Z,101054.00
2023-06-28T10:10:35.562Z,101052.97
2023-06-28T10:11:40.887Z,101056.50
2023-06-28T10:12:46.219Z,101045.63
2023-06-28T10:13:50.327Z,101052.34
2023-06-28T10:14:59.532Z,101040.63
2023-06-28T10:16:10.589Z,101044.41
2023-06-28T10:17:13.523Z,101049.00
2023-06-28T10:18:16.762Z,101044.59
2023-06-28T10:19:19.300Z,101046.50
2023-06-28T10:20:21.518Z,101044.81
2023-06-28T10:21:23.681Z,101042.69
2023-06-28T10:22:25.684Z,101039.38
2023-06-28T10:23:28.076Z,101042.47
2023-06-28T10:24:33.359Z,101045.84
2023-06-28T10:25:35.544Z,101033.50
2023-06-28T10:26:38.347Z,101035.00
2023-06-28T10:27:40.653Z,101037.72
2023-06-28T10:28:42.940Z,101040.22
2023-06-28T10:29:49.085Z,101030.56
2023-06-28T10:30:52.668Z,101039.38
2023-06-28T10:31:55.704Z,101035.81
2023-06-28T10:32:59.361Z,101026.84
2023-06-28T10:34:01.334Z,101039.38
2023-06-28T10:35:04.328Z,101026.84
2023-06-28T10:36:06.327Z,101028.53
2023-06-28T10:37:08.290Z,101024.13
2023-06-28T10:38:10.535Z,101025.19
2023-06-28T10:39:12.584Z,101017.03
2023-06-28T10:40:14.511Z,101014.31
2023-06-28T10:41:17.297Z,101014.31
2023-06-28T10:42:20.386Z,101011.59
2023-06-28T10:43:26.086Z,101001.75
2023-06-28T10:44:28.084Z,101010.56
2023-06-28T10:45:39.332Z,101009.53
2023-06-28T10:46:41.637Z,101003.88
2023-06-28T10:47:56.493Z,100996.56
2023-06-28T10:49:02.453Z,100994.69
2023-06-28T10:50:16.635Z,100993.88
2023-06-28T10:51:24.801Z,100986.13
2023-06-28T10:52:28.642Z,100988.44
2023-06-28T10:53:30.622Z,100995.94
2023-06-28T10:54:32.632Z,100991.34
2023-06-28T10:55:36.110Z,100988.84
2023-06-28T10:57:08.597Z,100989.06
2023-06-28T10:58:13.210Z,100979.25
2023-06-28T10:59:15.317Z,100979.44
2023-06-28T11:00:41.882Z,100980.50
2023-06-28T11:01:49.551Z,100979.66
2023-06-28T11:03:00.884Z,100980.91
2023-06-28T11:04:13.878Z,100979.66
2023-06-28T11:05:39.095Z,100973.81
2023-06-28T11:06:41.568Z,100974.44
2023-06-28T11:07:52.625Z,100973.41
2023-06-28T11:08:54.571Z,100965.03
2023-06-28T11:10:15.615Z,100973.41
2023-06-28T11:11:35.635Z,100975.09
2023-06-28T11:12:41.868Z,100983.00
2023-06-28T11:13:46.492Z,100973.41
2023-06-28T11:14:48.386Z,100975.50
2023-06-28T11:15:50.966Z,100980.28
2023-06-28T11:17:00.985Z,100973.38
2023-06-28T11:18:12.139Z,100965.66
2023-06-28T11:19:15.852Z,100972.78
2023-06-28T11:20:17.680Z,100965.66
2023-06-28T11:21:26.432Z,100967.75
2023-06-28T11:22:54.616Z,100972.38
2023-06-28T11:23:57.599Z,100966.94
2023-06-28T11:25:02.697Z,100954.56
2023-06-28T11:26:06.909Z,100973.59
2023-06-28T11:27:14.103Z,100971.09
2023-06-28T11:28:23.169Z,100969.19
2023-06-28T11:29:25.085Z,100966.31
2023-06-28T11:30:49.614Z,100964.00
2023-06-28T11:31:58.911Z,100964.00
2023-06-28T11:33:00.851Z,100968.59
2023-06-28T11:34:02.729Z,100966.31
2023-06-28T11:35:05.585Z,100956.25
2023-06-28T11:36:09.184Z,100963.34
2023-06-28T11:37:12.742Z,100963.34
2023-06-28T11:38:15.288Z,100964.00
2023-06-28T11:39:27.086Z,100965.03
2023-06-28T11:40:29.297Z,100967.34
2023-06-28T11:41:35.422Z,100961.28
2023-06-28T11:42:43.259Z,100957.47
2023-06-28T11:43:46.367Z,100962.94
2023-06-28T11:44:52.578Z,100969.41
2023-06-28T11:45:54.873Z,100967.53
2023-06-28T11:46:56.828Z,100965.84
2023-06-28T11:47:58.817Z,100962.06
2023-06-28T11:49:01.360Z,100967.75
2023-06-28T11:50:05.529Z,100960.81
2023-06-28T11:51:07.489Z,100957.94
2023-06-28T11:52:10.196Z,100959.16
2023-06-28T11:53:13.192Z,100968.78
2023-06-28T11:54:17.145Z,100964.19
2023-06-28T11:55:20.307Z,100950.38
2023-06-28T11:56:48.134Z,100961.50
2023-06-28T11:57:49.943Z,100965.03
2023-06-28T11:58:53.416Z,100956.25
2023-06-28T11:59:57.068Z,100946.03
2023-06-28T12:01:00.406Z,100955.84
2023-06-28T12:02:07.262Z,100954.16
2023-06-28T12:03:09.227Z,100949.38